Time;durP1;ratioP1;P1;durP2;ratioP2;P2;SDS_P1;SDS_P2;PMS_P1;PMS_P2;Temp;Humidity;BMP_temperature;BMP_pressure;BME280_temperature;BME280_humidity;BME280_pressure;Samples;Min_cycle;Max_cycle;Signal;HPM_P1;HPM_P2
2022/07/08 00:00:43;;;;;;;23.30;4.60;;;;;;;;;;4954236;29;20381;-64
2022/07/08 00:03:10;;;;;;;25.70;5.07;;;;;;;;;;4942133;28;20047;-64
2022/07/08 00:05:37;;;;;;;14.93;3.80;;;;;;;;;;4930853;29;20396;-65
2022/07/08 00:08:04;;;;;;;36.20;5.85;;;;;;;;;;4947767;29;20047;-64
2022/07/08 00:10:30;;;;;;;32.65;5.38;;;;;;;;;;4936232;29;20055;-64
2022/07/08 00:12:57;;;;;;;24.65;4.97;;;;;;;;;;4954098;29;20468;-65
2022/07/08 00:15:24;;;;;;;36.05;5.22;;;;;;;;;;4940026;29;20044;-64
2022/07/08 00:17:50;;;;;;;20.90;5.45;;;;;;;;;;4938758;28;20575;-65
2022/07/08 00:20:17;;;;;;;16.20;4.07;;;;;;;;;;4931574;29;20107;-65
2022/07/08 00:22:44;;;;;;;29.95;5.55;;;;;;;;;;4938692;29;20395;-65
2022/07/08 00:25:10;;;;;;;20.23;4.70;;;;;;;;;;4953829;29;20091;-64
2022/07/08 00:27:37;;;;;;;22.17;6.38;;;;;;;;;;4938125;29;20075;-64
2022/07/08 00:30:04;;;;;;;40.15;6.75;;;;;;;;;;4948846;28;20043;-64
2022/07/08 00:32:30;;;;;;;17.80;5.82;;;;;;;;;;4953202;29;20047;-64
2022/07/08 00:34:57;;;;;;;23.38;6.10;;;;;;;;;;4953615;29;20472;-65
2022/07/08 00:37:24;;;;;;;50.78;6.60;;;;;;;;;;4953311;29;21036;-64
2022/07/08 00:39:50;;;;;;;25.98;5.55;;;;;;;;;;4953721;29;20058;-64
2022/07/08 00:42:17;;;;;;;17.73;4.85;;;;;;;;;;4935617;29;20404;-64
2022/07/08 00:44:43;;;;;;;41.75;7.15;;;;;;;;;;4952932;29;20115;-64
2022/07/08 00:47:10;;;;;;;16.83;4.55;;;;;;;;;;4953382;29;20050;-65
2022/07/08 00:49:37;;;;;;;21.38;5.10;;;;;;;;;;4953641;29;20035;-65
2022/07/08 00:52:04;;;;;;;27.90;5.47;;;;;;;;;;4935062;29;20493;-65
2022/07/08 00:54:31;;;;;;;18.67;4.88;;;;;;;;;;4952358;28;20098;-64
2022/07/08 00:56:58;;;;;;;40.55;5.38;;;;;;;;;;4947899;29;20039;-64
2022/07/08 00:59:26;;;;;;;25.92;5.05;;;;;;;;;;4953507;29;20047;-64
2022/07/08 01:01:52;;;;;;;18.45;4.47;;;;;;;;;;4936255;29;20109;-64
2022/07/08 01:04:19;;;;;;;24.48;5.15;;;;;;;;;;4953092;29;20070;-64
2022/07/08 01:06:46;;;;;;;51.97;6.82;;;;;;;;;;4953310;29;20106;-64
2022/07/08 01:09:15;;;;;;;12.18;3.92;;;;;;;;;;4936136;29;20040;-64
2022/07/08 01:11:45;;;;;;;33.10;5.45;;;;;;;;;;4953001;29;20059;-64
2022/07/08 01:14:12;;;;;;;43.67;7.35;;;;;;;;;;4949363;29;20048;-64
2022/07/08 01:16:39;;;;;;;20.80;4.53;;;;;;;;;;4937410;29;20075;-65
2022/07/08 01:19:06;;;;;;;21.27;4.63;;;;;;;;;;4934887;29;20040;-64
2022/07/08 01:21:33;;;;;;;47.85;5.95;;;;;;;;;;4951469;28;20043;-65
2022/07/08 01:23:59;;;;;;;11.43;4.20;;;;;;;;;;4953205;29;20046;-65
2022/07/08 01:26:26;;;;;;;30.55;4.55;;;;;;;;;;4927179;29;20040;-64
2022/07/08 01:28:52;;;;;;;38.63;5.60;;;;;;;;;;4952754;29;20431;-65
2022/07/08 01:31:19;;;;;;;30.63;5.10;;;;;;;;;;4952918;29;20106;-64
2022/07/08 01:33:46;;;;;;;17.30;4.20;;;;;;;;;;4936045;29;20043;-65
2022/07/08 01:36:12;;;;;;;54.60;6.90;;;;;;;;;;4952420;29;20141;-64
2022/07/08 01:38:39;;;;;;;14.38;3.92;;;;;;;;;;4953150;29;20399;-64
2022/07/08 01:41:06;;;;;;;16.55;4.18;;;;;;;;;;4953091;29;20043;-64
2022/07/08 01:43:32;;;;;;;30.17;5.38;;;;;;;;;;4954663;28;20440;-64
2022/07/08 01:45:59;;;;;;;17.08;4.40;;;;;;;;;;4956847;29;20043;-65
2022/07/08 01:48:25;;;;;;;28.75;4.80;;;;;;;;;;4955734;29;20481;-65
2022/07/08 01:50:52;;;;;;;62.55;6.85;;;;;;;;;;4955975;29;20062;-65
2022/07/08 01:53:19;;;;;;;35.70;5.40;;;;;;;;;;4956342;29;20118;-64
2022/07/08 01:55:46;;;;;;;25.10;4.82;;;;;;;;;;4956434;29;20054;-64
2022/07/08 01:58:12;;;;;;;26.58;4.72;;;;;;;;;;4956514;29;20039;-64
2022/07/08 02:00:39;;;;;;;15.73;4.18;;;;;;;;;;4939696;29;20444;-64
2022/07/08 02:03:06;;;;;;;19.58;4.93;;;;;;;;;;4951834;29;20384;-64
2022/07/08 02:05:34;;;;;;;13.32;4.38;;;;;;;;;;4955680;29;20042;-64
2022/07/08 02:08:02;;;;;;;21.63;4.78;;;;;;;;;;4955853;29;20764;-64
2022/07/08 02:10:29;;;;;;;36.78;5.45;;;;;;;;;;4956108;29;20451;-64
2022/07/08 02:12:57;;;;;;;18.27;4.45;;;;;;;;;;4956002;29;20464;-65
2022/07/08 02:15:23;;;;;;;14.93;4.40;;;;;;;;;;4955863;29;20094;-64
2022/07/08 02:17:50;;;;;;;20.33;5.03;;;;;;;;;;4955994;29;20035;-64
2022/07/08 02:20:17;;;;;;;23.08;4.80;;;;;;;;;;4950766;29;20044;-64
2022/07/08 02:22:44;;;;;;;24.70;5.13;;;;;;;;;;4938841;29;20035;-64
2022/07/08 02:25:11;;;;;;;19.73;4.80;;;;;;;;;;4936953;29;20048;-64
2022/07/08 02:27:37;;;;;;;13.95;5.13;;;;;;;;;;4940384;28;20043;-65
2022/07/08 02:30:04;;;;;;;28.75;5.85;;;;;;;;;;4950772;29;20040;-64
2022/07/08 02:32:31;;;;;;;25.00;5.10;;;;;;;;;;4955869;29;20566;-64
2022/07/08 02:34:57;;;;;;;16.83;5.40;;;;;;;;;;4955398;29;20043;-64
2022/07/08 02:37:24;;;;;;;48.97;7.85;;;;;;;;;;4955271;29;20134;-64
2022/07/08 02:39:51;;;;;;;36.97;13.27;;;;;;;;;;4939603;29;20040;-64
2022/07/08 02:42:17;;;;;;;56.20;14.18;;;;;;;;;;4952541;28;20087;-64
2022/07/08 02:44:44;;;;;;;60.22;20.75;;;;;;;;;;4934475;29;20499;-64
2022/07/08 02:47:10;;;;;;;35.83;16.92;;;;;;;;;;4939933;29;20044;-64
2022/07/08 02:49:37;;;;;;;49.28;22.33;;;;;;;;;;4938988;29;20408;-64
2022/07/08 02:52:04;;;;;;;46.00;13.55;;;;;;;;;;4955594;29;20042;-65
2022/07/08 02:54:30;;;;;;;17.83;7.60;;;;;;;;;;4955617;28;20039;-64
2022/07/08 02:56:57;;;;;;;19.05;6.55;;;;;;;;;;4954835;29;20042;-65
2022/07/08 02:59:24;;;;;;;37.28;9.20;;;;;;;;;;4938167;29;20049;-64
2022/07/08 03:01:50;;;;;;;34.53;9.77;;;;;;;;;;4955017;29;20043;-65
2022/07/08 03:04:17;;;;;;;24.15;9.30;;;;;;;;;;4954835;29;20113;-65
2022/07/08 03:06:44;;;;;;;43.95;10.82;;;;;;;;;;4937992;29;20043;-64
2022/07/08 03:09:11;;;;;;;24.23;8.75;;;;;;;;;;4954807;29;20480;-65
2022/07/08 03:11:37;;;;;;;48.58;9.50;;;;;;;;;;4954645;29;20153;-65
2022/07/08 03:14:04;;;;;;;36.08;7.97;;;;;;;;;;4937447;29;20127;-64
2022/07/08 03:16:32;;;;;;;35.55;8.27;;;;;;;;;;4937790;29;20237;-65
2022/07/08 03:18:59;;;;;;;25.98;7.55;;;;;;;;;;4937134;29;20048;-64
2022/07/08 03:21:26;;;;;;;45.70;8.52;;;;;;;;;;4933815;29;20047;-65
2022/07/08 03:23:52;;;;;;;22.75;7.07;;;;;;;;;;4948507;29;20049;-64
2022/07/08 03:26:19;;;;;;;45.53;9.45;;;;;;;;;;4954430;29;20070;-65
2022/07/08 03:28:45;;;;;;;41.28;8.52;;;;;;;;;;4954690;29;20039;-65
2022/07/08 03:31:12;;;;;;;19.33;6.07;;;;;;;;;;4955284;29;20106;-65
2022/07/08 03:33:40;;;;;;;45.55;7.57;;;;;;;;;;4953731;29;20073;-65
2022/07/08 03:36:07;;;;;;;34.00;6.28;;;;;;;;;;4954117;29;20055;-65
2022/07/08 03:38:34;;;;;;;17.10;5.70;;;;;;;;;;4937606;29;20118;-64
2022/07/08 03:43:47;;;;;;;32.95;7.43;;;;;;;;;;4939108;28;20039;-65
2022/07/08 03:46:14;;;;;;;60.97;9.05;;;;;;;;;;4954881;29;20039;-65
2022/07/08 03:48:41;;;;;;;35.90;6.85;;;;;;;;;;4953985;29;20127;-65
2022/07/08 03:51:08;;;;;;;22.67;6.57;;;;;;;;;;4954350;29;20039;-65
2022/07/08 03:53:34;;;;;;;26.08;6.28;;;;;;;;;;4947475;29;20066;-65
2022/07/08 03:56:02;;;;;;;28.35;6.75;;;;;;;;;;4941192;29;20067;-64
2022/07/08 03:58:29;;;;;;;45.63;8.18;;;;;;;;;;4953722;29;20090;-64
2022/07/08 04:00:56;;;;;;;24.08;6.82;;;;;;;;;;4954060;28;20492;-65
2022/07/08 04:03:23;;;;;;;28.73;6.53;;;;;;;;;;4953730;29;20047;-64
2022/07/08 04:05:49;;;;;;;35.97;7.35;;;;;;;;;;4953057;28;20039;-65
2022/07/08 04:08:16;;;;;;;37.97;6.90;;;;;;;;;;4953878;29;20411;-65
2022/07/08 04:10:43;;;;;;;27.17;6.78;;;;;;;;;;4920783;29;20471;-64
2022/07/08 04:13:09;;;;;;;32.60;6.35;;;;;;;;;;4949755;29;20074;-64
2022/07/08 04:15:36;;;;;;;25.00;6.30;;;;;;;;;;4953596;29;20043;-65
2022/07/08 04:18:03;;;;;;;57.65;8.27;;;;;;;;;;4953425;29;20396;-64
2022/07/08 04:20:29;;;;;;;32.40;7.10;;;;;;;;;;4948110;29;20043;-65
2022/07/08 04:22:56;;;;;;;20.65;5.85;;;;;;;;;;4939716;29;20059;-64
2022/07/08 04:25:23;;;;;;;34.45;6.22;;;;;;;;;;4936406;29;20047;-64
2022/07/08 04:27:49;;;;;;;104.38;11.82;;;;;;;;;;4953404;29;20043;-64
2022/07/08 04:30:16;;;;;;;36.92;9.05;;;;;;;;;;4936142;29;20114;-64
2022/07/08 04:32:43;;;;;;;20.45;5.60;;;;;;;;;;4936314;29;20055;-65
2022/07/08 04:35:09;;;;;;;50.92;8.80;;;;;;;;;;4953199;29;20050;-64
2022/07/08 04:37:36;;;;;;;40.72;7.18;;;;;;;;;;4937944;29;20051;-65
2022/07/08 04:40:02;;;;;;;31.60;5.03;;;;;;;;;;4953538;29;20611;-65
2022/07/08 04:42:29;;;;;;;30.83;5.28;;;;;;;;;;4952813;29;20484;-65
2022/07/08 04:44:56;;;;;;;335.83;23.35;;;;;;;;;;4952795;29;20046;-65
2022/07/08 04:47:22;;;;;;;25.60;6.38;;;;;;;;;;4952885;29;20074;-64
2022/07/08 04:49:49;;;;;;;56.33;8.50;;;;;;;;;;4952996;29;20126;-64
2022/07/08 04:52:15;;;;;;;46.10;8.07;;;;;;;;;;4954090;29;20046;-65
2022/07/08 04:54:42;;;;;;;36.55;6.82;;;;;;;;;;4937818;29;20068;-65
2022/07/08 04:57:09;;;;;;;32.60;6.57;;;;;;;;;;4948173;29;20046;-64
2022/07/08 04:59:35;;;;;;;30.02;7.00;;;;;;;;;;4932274;29;20053;-65
2022/07/08 05:02:02;;;;;;;28.95;7.00;;;;;;;;;;4953379;29;20185;-65
2022/07/08 05:04:29;;;;;;;58.72;7.80;;;;;;;;;;4952876;29;20039;-65
2022/07/08 05:06:56;;;;;;;24.52;5.97;;;;;;;;;;4953702;29;20040;-65
2022/07/08 05:09:22;;;;;;;24.13;6.25;;;;;;;;;;4952994;29;20047;-65
2022/07/08 05:11:49;;;;;;;46.47;6.70;;;;;;;;;;4944170;29;20549;-65
2022/07/08 05:14:15;;;;;;;32.00;6.45;;;;;;;;;;4942422;29;20032;-65
2022/07/08 05:16:43;;;;;;;50.33;6.88;;;;;;;;;;4952877;28;20106;-64
2022/07/08 05:19:10;;;;;;;30.48;6.82;;;;;;;;;;4956883;29;20118;-65
2022/07/08 05:21:37;;;;;;;19.40;5.40;;;;;;;;;;4957051;28;20460;-65
2022/07/08 05:24:07;;;;;;;14.93;5.00;;;;;;;;;;4939562;29;20042;-65
2022/07/08 05:26:34;;;;;;;52.45;8.40;;;;;;;;;;4956215;29;20043;-64
2022/07/08 05:29:01;;;;;;;41.10;6.30;;;;;;;;;;4956452;29;20490;-65
2022/07/08 05:31:27;;;;;;;36.22;6.03;;;;;;;;;;4957069;29;20107;-65
2022/07/08 05:33:54;;;;;;;47.50;7.15;;;;;;;;;;4957079;29;20047;-65
2022/07/08 05:36:21;;;;;;;19.00;5.30;;;;;;;;;;4956464;29;20086;-65
2022/07/08 05:38:47;;;;;;;25.23;6.22;;;;;;;;;;4956322;29;20050;-65
2022/07/08 05:41:14;;;;;;;52.50;7.60;;;;;;;;;;4938757;29;20048;-64
2022/07/08 05:43:41;;;;;;;23.00;5.90;;;;;;;;;;4956389;29;20401;-65
2022/07/08 05:46:08;;;;;;;16.08;4.72;;;;;;;;;;4956850;29;20126;-65
2022/07/08 05:48:34;;;;;;;20.67;4.90;;;;;;;;;;4950941;29;20507;-64
2022/07/08 05:51:01;;;;;;;23.42;5.00;;;;;;;;;;4951266;29;20051;-65
2022/07/08 05:53:28;;;;;;;92.38;8.68;;;;;;;;;;4929394;29;20047;-65
2022/07/08 05:55:54;;;;;;;46.95;5.88;;;;;;;;;;4955521;29;20400;-65
2022/07/08 05:58:21;;;;;;;145.88;11.95;;;;;;;;;;4955520;29;20039;-65
2022/07/08 06:00:47;;;;;;;30.50;5.55;;;;;;;;;;4956876;29;20443;-65
2022/07/08 06:03:14;;;;;;;25.55;4.97;;;;;;;;;;4955872;29;20571;-65
2022/07/08 06:05:41;;;;;;;31.90;5.78;;;;;;;;;;4938696;29;20065;-65
2022/07/08 06:08:07;;;;;;;26.48;4.72;;;;;;;;;;4935550;29;20117;-65
2022/07/08 06:10:34;;;;;;;38.03;5.80;;;;;;;;;;4944451;28;20131;-65
2022/07/08 06:13:01;;;;;;;48.38;6.00;;;;;;;;;;4938686;29;20102;-65
2022/07/08 06:15:28;;;;;;;146.98;11.90;;;;;;;;;;4955745;28;20047;-65
2022/07/08 06:17:55;;;;;;;51.35;5.65;;;;;;;;;;4938396;29;20058;-65
2022/07/08 06:20:21;;;;;;;60.72;6.30;;;;;;;;;;4955516;28;20456;-65
2022/07/08 06:22:50;;;;;;;25.65;3.08;;;;;;;;;;4955866;28;20098;-65
2022/07/08 06:25:17;;;;;;;21.48;4.07;;;;;;;;;;4956130;29;20066;-65
2022/07/08 06:27:43;;;;;;;30.92;3.85;;;;;;;;;;4955158;29;20047;-65
2022/07/08 06:30:13;;;;;;;17.08;2.35;;;;;;;;;;4955117;28;20444;-65
2022/07/08 06:32:39;;;;;;;16.88;3.03;;;;;;;;;;4938391;29;20400;-65
2022/07/08 06:35:06;;;;;;;33.60;3.58;;;;;;;;;;4955634;28;20027;-65
2022/07/08 06:37:33;;;;;;;46.58;4.32;;;;;;;;;;4955793;28;20043;-65
2022/07/08 06:40:00;;;;;;;19.27;3.08;;;;;;;;;;4939099;29;20114;-66
2022/07/08 06:42:26;;;;;;;50.38;5.00;;;;;;;;;;4954588;28;20117;-65
2022/07/08 06:44:54;;;;;;;28.80;3.40;;;;;;;;;;4955357;28;20039;-65
2022/07/08 06:47:22;;;;;;;24.45;2.92;;;;;;;;;;4954901;29;20722;-65
2022/07/08 06:49:50;;;;;;;47.25;4.88;;;;;;;;;;4955634;28;20031;-65
2022/07/08 06:52:17;;;;;;;14.07;2.70;;;;;;;;;;4956051;29;20039;-65
2022/07/08 06:54:44;;;;;;;203.88;13.68;;;;;;;;;;4939072;28;20472;-65
2022/07/08 06:57:11;;;;;;;34.85;3.47;;;;;;;;;;4958690;28;20039;-65
2022/07/08 06:59:38;;;;;;;41.13;3.63;;;;;;;;;;4955274;28;20047;-65
2022/07/08 07:02:25;;;;;;;50.85;4.60;;;;;;;;;;4955004;28;20039;-65
2022/07/08 07:04:52;;;;;;;15.63;2.15;;;;;;;;;;4955060;29;20514;-65
2022/07/08 07:07:19;;;;;;;18.15;2.70;;;;;;;;;;4955500;29;20058;-65
2022/07/08 07:09:47;;;;;;;45.63;4.32;;;;;;;;;;4937477;29;20484;-65
2022/07/08 07:12:14;;;;;;;13.15;2.22;;;;;;;;;;4937443;29;20523;-65
2022/07/08 07:14:41;;;;;;;16.05;2.70;;;;;;;;;;4954464;29;20043;-65
2022/07/08 07:17:08;;;;;;;45.22;4.65;;;;;;;;;;4954362;29;20039;-65
2022/07/08 07:19:34;;;;;;;22.67;3.00;;;;;;;;;;4954536;28;20075;-65
2022/07/08 07:22:01;;;;;;;34.80;3.72;;;;;;;;;;4938121;29;20043;-65
2022/07/08 07:24:28;;;;;;;43.30;3.92;;;;;;;;;;4937360;29;20134;-65
2022/07/08 07:26:54;;;;;;;21.55;3.35;;;;;;;;;;4954134;28;20068;-65
2022/07/08 07:29:21;;;;;;;31.85;3.28;;;;;;;;;;4954803;28;20050;-65
2022/07/08 07:31:48;;;;;;;35.17;3.70;;;;;;;;;;4937188;28;20130;-65
2022/07/08 07:37:10;;;;;;;86.28;7.05;;;;;;;;;;5145022;23;20423;-64
2022/07/08 07:39:36;;;;;;;32.63;3.97;;;;;;;;;;4932996;29;20113;-64
2022/07/08 07:42:03;;;;;;;31.73;4.20;;;;;;;;;;4917444;29;20115;-64
2022/07/08 07:44:30;;;;;;;14.13;2.67;;;;;;;;;;4917608;29;20051;-64
2022/07/08 07:46:56;;;;;;;43.95;5.15;;;;;;;;;;4934547;29;20054;-64
2022/07/08 07:49:23;;;;;;;12.65;3.28;;;;;;;;;;4935781;29;20496;-64
2022/07/08 07:51:50;;;;;;;516.95;37.08;;;;;;;;;;4924270;29;20448;-64
2022/07/08 07:54:16;;;;;;;98.60;8.43;;;;;;;;;;4928217;29;20079;-64
2022/07/08 07:56:43;;;;;;;29.83;4.13;;;;;;;;;;4934533;29;20036;-64
2022/07/08 07:59:10;;;;;;;23.27;2.53;;;;;;;;;;4935146;29;20042;-64
2022/07/08 08:01:36;;;;;;;55.30;5.38;;;;;;;;;;4934992;29;20047;-64
2022/07/08 08:04:03;;;;;;;34.67;3.67;;;;;;;;;;4902378;29;20142;-65
2022/07/08 08:06:30;;;;;;;8.98;2.53;;;;;;;;;;4934625;29;20460;-65
2022/07/08 08:08:57;;;;;;;38.13;4.28;;;;;;;;;;4936997;29;20559;-64
2022/07/08 08:11:24;;;;;;;24.75;3.50;;;;;;;;;;4934577;29;20039;-64
2022/07/08 08:13:51;;;;;;;54.78;5.20;;;;;;;;;;4934561;29;20047;-64
2022/07/08 08:16:17;;;;;;;27.55;3.38;;;;;;;;;;4935068;29;20095;-64
2022/07/08 08:18:44;;;;;;;31.00;4.05;;;;;;;;;;4927800;29;20050;-65
2022/07/08 08:21:11;;;;;;;19.50;3.35;;;;;;;;;;4934157;29;20494;-64
2022/07/08 08:23:37;;;;;;;56.67;4.50;;;;;;;;;;4934112;29;20079;-64
2022/07/08 08:26:04;;;;;;;34.95;3.88;;;;;;;;;;4934349;29;20036;-65
2022/07/08 08:28:31;;;;;;;48.85;3.88;;;;;;;;;;4934964;29;20078;-64
2022/07/08 08:30:58;;;;;;;30.23;3.42;;;;;;;;;;4925065;29;20126;-64
2022/07/08 08:33:25;;;;;;;54.47;4.43;;;;;;;;;;4934598;29;20385;-64
2022/07/08 08:35:51;;;;;;;92.78;6.38;;;;;;;;;;4916893;29;20044;-64
2022/07/08 08:38:18;;;;;;;61.03;5.93;;;;;;;;;;4912759;29;20861;-64
2022/07/08 08:40:46;;;;;;;46.88;4.57;;;;;;;;;;4932831;29;20399;-65
2022/07/08 08:43:13;;;;;;;33.72;3.92;;;;;;;;;;4932950;29;20122;-64
2022/07/08 08:45:53;;;;;;;42.85;4.55;;;;;;;;;;4922220;29;20477;-65
2022/07/08 08:48:22;;;;;;;43.63;4.50;;;;;;;;;;4924949;29;20488;-65
2022/07/08 08:50:54;;;;;;;33.05;3.83;;;;;;;;;;4913200;29;20389;-65
2022/07/08 08:53:27;;;;;;;38.08;4.18;;;;;;;;;;4930059;29;20425;-64
2022/07/08 08:55:55;;;;;;;21.60;2.97;;;;;;;;;;4931196;29;20528;-64
2022/07/08 08:58:22;;;;;;;27.23;4.20;;;;;;;;;;4933498;29;20124;-65
2022/07/08 09:00:49;;;;;;;24.98;4.28;;;;;;;;;;4913057;29;20039;-65
2022/07/08 09:03:16;;;;;;;96.05;8.77;;;;;;;;;;4929606;29;20046;-65
2022/07/08 09:05:43;;;;;;;47.30;5.65;;;;;;;;;;4929672;29;20433;-65
2022/07/08 09:08:09;;;;;;;17.83;3.38;;;;;;;;;;4929783;29;20040;-65
2022/07/08 09:10:36;;;;;;;56.65;5.45;;;;;;;;;;4933344;29;20115;-64
2022/07/08 09:13:04;;;;;;;44.05;5.45;;;;;;;;;;4898838;29;20062;-64
2022/07/08 09:15:33;;;;;;;27.10;3.33;;;;;;;;;;4929419;29;20484;-64
2022/07/08 09:18:00;;;;;;;27.02;3.97;;;;;;;;;;4929312;29;20111;-64
2022/07/08 09:20:30;;;;;;;31.90;4.28;;;;;;;;;;4913045;29;20039;-64
2022/07/08 09:22:57;;;;;;;21.60;3.38;;;;;;;;;;4913750;29;20055;-64
2022/07/08 09:25:24;;;;;;;20.23;3.28;;;;;;;;;;4933543;29;20039;-64
2022/07/08 09:27:50;;;;;;;44.38;4.82;;;;;;;;;;4912313;29;20086;-64
2022/07/08 09:30:17;;;;;;;95.88;7.75;;;;;;;;;;4929753;29;20036;-64
2022/07/08 09:32:55;;;;;;;24.55;3.40;;;;;;;;;;4929055;29;20040;-64
2022/07/08 09:35:22;;;;;;;40.40;4.30;;;;;;;;;;4929416;29;20055;-64
2022/07/08 09:37:51;;;;;;;42.28;5.20;;;;;;;;;;4931421;29;20059;-64
2022/07/08 09:40:19;;;;;;;15.85;2.95;;;;;;;;;;4915765;29;20051;-64
2022/07/08 09:42:50;;;;;;;61.83;6.20;;;;;;;;;;4913378;29;20044;-64
2022/07/08 09:45:17;;;;;;;29.90;3.90;;;;;;;;;;4927200;29;20127;-64
2022/07/08 09:47:43;;;;;;;27.95;4.03;;;;;;;;;;4922043;29;20043;-64
2022/07/08 09:50:10;;;;;;;44.92;5.47;;;;;;;;;;4912417;29;20048;-64
2022/07/08 09:56:11;;;;;;;26.65;4.75;;;;;;;;;;4915354;29;20039;-62
2022/07/08 09:58:38;;;;;;;53.45;7.10;;;;;;;;;;4913369;29;20048;-62
2022/07/08 10:01:06;;;;;;;28.90;5.95;;;;;;;;;;4930269;29;20039;-62
2022/07/08 10:03:35;;;;;;;21.30;5.07;;;;;;;;;;4929975;29;20472;-62
2022/07/08 10:06:02;;;;;;;14.30;4.80;;;;;;;;;;4932831;29;20077;-62
2022/07/08 10:08:29;;;;;;;17.67;4.80;;;;;;;;;;4932561;29;20515;-62
2022/07/08 10:10:57;;;;;;;41.42;6.38;;;;;;;;;;4933697;29;20471;-62
2022/07/08 10:13:25;;;;;;;13.77;10.23;;;;;;;;;;4936639;29;20044;-63
2022/07/08 10:15:57;;;;;;;27.40;5.47;;;;;;;;;;4932409;29;20047;-63
2022/07/08 10:18:25;;;;;;;31.40;4.90;;;;;;;;;;4932344;29;20460;-63
2022/07/08 10:20:53;;;;;;;22.10;4.03;;;;;;;;;;4935182;29;20092;-63
2022/07/08 10:23:27;;;;;;;95.85;9.05;;;;;;;;;;4932432;29;20051;-63
2022/07/08 10:25:56;;;;;;;33.42;5.05;;;;;;;;;;4916945;29;20058;-63
2022/07/08 10:28:33;;;;;;;15.13;3.95;;;;;;;;;;4919039;29;20047;-63
2022/07/08 10:31:00;;;;;;;30.05;5.10;;;;;;;;;;4931927;29;20440;-64
2022/07/08 10:33:28;;;;;;;16.95;4.30;;;;;;;;;;4932422;29;20111;-63
2022/07/08 10:36:02;;;;;;;54.90;5.43;;;;;;;;;;4932045;29;20090;-63
2022/07/08 10:38:29;;;;;;;37.00;5.05;;;;;;;;;;4931004;29;20131;-64
2022/07/08 10:40:59;;;;;;;14.35;3.17;;;;;;;;;;4933395;29;20049;-63
2022/07/08 10:43:27;;;;;;;184.35;12.32;;;;;;;;;;4936321;29;20058;-63
2022/07/08 10:45:57;;;;;;;24.08;4.20;;;;;;;;;;4923881;29;20040;-63
2022/07/08 10:48:25;;;;;;;37.33;5.10;;;;;;;;;;4927778;29;20040;-63
2022/07/08 10:50:52;;;;;;;28.02;4.85;;;;;;;;;;4927879;29;20071;-63
2022/07/08 10:53:46;;;;;;;59.83;6.82;;;;;;;;;;4917553;29;20497;-63
2022/07/08 10:56:32;;;;;;;31.40;4.80;;;;;;;;;;4915078;29;20047;-63
2022/07/08 10:59:18;;;;;;;11.43;4.30;;;;;;;;;;4915651;29;20056;-63
2022/07/08 11:01:54;;;;;;;28.40;6.20;;;;;;;;;;4915631;29;20056;-63
2022/07/08 11:04:21;;;;;;;14.50;6.03;;;;;;;;;;4935301;29;20048;-60
2022/07/08 11:06:48;;;;;;;44.97;8.30;;;;;;;;;;4931229;29;20548;-60
2022/07/08 11:09:16;;;;;;;17.63;6.47;;;;;;;;;;4931226;29;20102;-60
2022/07/08 11:11:44;;;;;;;20.25;7.05;;;;;;;;;;4931619;29;20044;-60
2022/07/08 11:14:11;;;;;;;51.90;8.43;;;;;;;;;;4931233;29;20497;-61
2022/07/08 11:16:38;;;;;;;33.08;7.45;;;;;;;;;;4935748;29;20510;-61
2022/07/08 11:19:08;;;;;;;12.75;7.35;;;;;;;;;;4932532;29;20555;-61
2022/07/08 11:21:35;;;;;;;46.67;10.00;;;;;;;;;;4931273;29;20050;-61
2022/07/08 11:24:03;;;;;;;18.55;8.77;;;;;;;;;;4931056;29;20412;-61
2022/07/08 11:26:29;;;;;;;33.55;10.93;;;;;;;;;;4931284;29;20043;-61
2022/07/08 11:28:56;;;;;;;43.42;11.27;;;;;;;;;;4915278;29;20151;-61
2022/07/08 11:31:23;;;;;;;31.70;10.68;;;;;;;;;;4917661;29;20853;-61
2022/07/08 11:33:50;;;;;;;33.85;11.52;;;;;;;;;;4913401;29;20055;-61
2022/07/08 11:36:17;;;;;;;46.70;13.32;;;;;;;;;;4908309;29;20458;-61
2022/07/08 11:38:48;;;;;;;35.22;12.77;;;;;;;;;;4930666;29;20051;-62
2022/07/08 11:41:15;;;;;;;18.98;10.10;;;;;;;;;;4930828;29;20047;-61
2022/07/08 11:43:42;;;;;;;54.17;12.02;;;;;;;;;;4934371;29;20067;-61
2022/07/08 11:46:19;;;;;;;14.55;8.95;;;;;;;;;;4923215;29;20040;-61
2022/07/08 11:48:46;;;;;;;49.67;10.40;;;;;;;;;;4896508;29;20043;-62
2022/07/08 11:51:13;;;;;;;42.45;9.60;;;;;;;;;;4926492;29;20524;-62
2022/07/08 11:53:40;;;;;;;43.05;8.63;;;;;;;;;;4919955;29;20079;-63
2022/07/08 11:56:07;;;;;;;44.25;6.60;;;;;;;;;;4931180;29;20044;-63
2022/07/08 11:58:39;;;;;;;27.00;4.45;;;;;;;;;;4931148;29;20079;-63
2022/07/08 12:01:06;;;;;;;14.02;3.85;;;;;;;;;;4915046;29;20047;-64
2022/07/08 12:03:34;;;;;;;34.75;5.60;;;;;;;;;;4930085;29;20085;-63
2022/07/08 12:06:02;;;;;;;26.77;4.70;;;;;;;;;;4930506;29;20035;-64
2022/07/08 12:08:29;;;;;;;27.63;5.45;;;;;;;;;;4913527;29;20503;-64
2022/07/08 12:11:16;;;;;;;51.00;6.28;;;;;;;;;;4914729;29;20066;-64
2022/07/08 12:13:43;;;;;;;31.40;4.40;;;;;;;;;;4930986;29;20051;-64
2022/07/08 12:16:10;;;;;;;42.38;5.30;;;;;;;;;;4914866;29;20044;-64
2022/07/08 12:18:41;;;;;;;20.00;2.97;;;;;;;;;;4930549;29;20044;-64
2022/07/08 12:21:20;;;;;;;21.20;3.08;;;;;;;;;;4913309;29;20075;-64
2022/07/08 12:23:56;;;;;;;20.60;3.08;;;;;;;;;;4929954;29;20405;-64
2022/07/08 12:26:22;;;;;;;18.00;2.65;;;;;;;;;;4929880;29;20095;-64
2022/07/08 12:28:49;;;;;;;70.72;5.53;;;;;;;;;;4932322;29;20389;-63
2022/07/08 12:31:32;;;;;;;26.45;3.55;;;;;;;;;;4905185;29;20416;-63
2022/07/08 12:34:00;;;;;;;36.20;4.13;;;;;;;;;;4929603;29;20047;-64
2022/07/08 12:36:28;;;;;;;41.58;5.10;;;;;;;;;;4930298;29;20048;-64
2022/07/08 12:38:54;;;;;;;30.98;4.70;;;;;;;;;;4929961;29;20408;-63
2022/07/08 12:41:21;;;;;;;26.08;5.65;;;;;;;;;;4913300;29;20132;-63
2022/07/08 12:43:48;;;;;;;40.15;5.80;;;;;;;;;;4932618;29;20031;-63
2022/07/08 12:46:14;;;;;;;18.33;5.00;;;;;;;;;;4921597;29;20044;-63
2022/07/08 12:48:41;;;;;;;34.28;6.18;;;;;;;;;;4926878;29;20043;-63
2022/07/08 12:51:08;;;;;;;11.32;4.95;;;;;;;;;;4913435;29;20039;-64
2022/07/08 12:53:34;;;;;;;18.20;5.00;;;;;;;;;;4912632;29;20075;-63
2022/07/08 12:56:01;;;;;;;17.33;4.80;;;;;;;;;;4930596;29;20097;-63
2022/07/08 12:58:27;;;;;;;18.42;4.68;;;;;;;;;;4933866;29;20048;-63
2022/07/08 13:00:55;;;;;;;15.68;4.78;;;;;;;;;;4929954;29;20040;-63
2022/07/08 13:03:22;;;;;;;20.48;4.90;;;;;;;;;;4929819;29;20353;-63
2022/07/08 13:05:48;;;;;;;29.25;5.38;;;;;;;;;;4929944;29;20039;-63
2022/07/08 13:08:15;;;;;;;33.67;6.70;;;;;;;;;;4928526;29;20044;-63
2022/07/08 13:10:42;;;;;;;34.00;6.30;;;;;;;;;;4914871;29;20123;-63
2022/07/08 13:13:08;;;;;;;87.47;9.65;;;;;;;;;;4930593;29;20102;-63
2022/07/08 13:15:35;;;;;;;34.20;6.57;;;;;;;;;;4930108;29;20040;-63
2022/07/08 13:18:02;;;;;;;31.50;6.05;;;;;;;;;;4929622;29;20059;-63
2022/07/08 13:20:28;;;;;;;47.95;6.63;;;;;;;;;;4915744;29;20833;-63
2022/07/08 13:22:55;;;;;;;40.40;5.88;;;;;;;;;;4914382;29;20044;-63
2022/07/08 13:25:22;;;;;;;19.75;5.53;;;;;;;;;;4932747;29;20051;-63
2022/07/08 13:27:49;;;;;;;39.03;4.30;;;;;;;;;;4908701;29;20051;-63
2022/07/08 13:30:15;;;;;;;42.10;4.28;;;;;;;;;;4929632;29;20071;-61
2022/07/08 13:32:42;;;;;;;46.08;5.63;;;;;;;;;;4929688;29;20043;-60
2022/07/08 13:35:08;;;;;;;36.00;2.42;;;;;;;;;;4912942;29;20119;-60
2022/07/08 13:37:36;;;;;;;12.10;0.93;;;;;;;;;;4930003;29;20460;-61
2022/07/08 13:40:03;;;;;;;27.50;1.65;;;;;;;;;;4938996;29;20483;-61
2022/07/08 13:42:30;;;;;;;38.83;2.28;;;;;;;;;;4937114;29;20043;-61
2022/07/08 13:44:56;;;;;;;26.98;1.77;;;;;;;;;;4937115;29;20036;-60
2022/07/08 13:47:23;;;;;;;14.25;1.05;;;;;;;;;;4920107;29;20534;-61
2022/07/08 13:49:49;;;;;;;57.63;3.33;;;;;;;;;;4937585;29;20051;-60
2022/07/08 13:52:16;;;;;;;23.60;1.50;;;;;;;;;;4937319;29;20552;-60
2022/07/08 13:54:59;;;;;;;41.13;2.47;;;;;;;;;;4936617;29;20063;-60
2022/07/08 13:57:26;;;;;;;25.73;1.63;;;;;;;;;;4936892;29;20031;-60
2022/07/08 13:59:52;;;;;;;15.60;1.00;;;;;;;;;;4937168;29;20094;-60
2022/07/08 14:02:19;;;;;;;24.63;1.42;;;;;;;;;;4919961;29;20044;-61
2022/07/08 14:04:46;;;;;;;28.63;1.70;;;;;;;;;;4936897;29;20043;-61
2022/07/08 14:07:13;;;;;;;50.63;3.08;;;;;;;;;;4936753;29;20416;-61
2022/07/08 14:09:39;;;;;;;42.95;2.65;;;;;;;;;;4936466;29;20106;-61
2022/07/08 14:12:09;;;;;;;27.88;1.73;;;;;;;;;;4936874;29;20035;-60
2022/07/08 14:14:36;;;;;;;35.40;2.17;;;;;;;;;;4919544;29;20047;-60
2022/07/08 14:17:03;;;;;;;28.70;1.73;;;;;;;;;;4937056;29;20048;-60
2022/07/08 14:19:29;;;;;;;12.05;0.95;;;;;;;;;;4920180;29;20069;-60
2022/07/08 14:21:56;;;;;;;29.38;2.05;;;;;;;;;;4936347;29;20106;-60
2022/07/08 14:24:24;;;;;;;28.75;1.92;;;;;;;;;;4919099;29;20508;-60
2022/07/08 14:26:51;;;;;;;151.60;44.58;;;;;;;;;;4936870;29;20039;-60
2022/07/08 14:29:18;;;;;;;133.43;41.08;;;;;;;;;;4936480;29;20047;-60
2022/07/08 14:31:44;;;;;;;132.32;41.67;;;;;;;;;;4936246;29;20039;-60
2022/07/08 14:34:11;;;;;;;122.03;40.78;;;;;;;;;;4936774;29;20044;-61
2022/07/08 14:36:38;;;;;;;139.93;41.33;;;;;;;;;;4936027;29;20051;-61
2022/07/08 14:39:04;;;;;;;119.05;39.47;;;;;;;;;;4931589;29;20062;-61